createdAt,value
2023-05-18T00:03:23.279Z,102781.56
2023-05-18T00:08:19.765Z,102781.56
2023-05-18T00:13:16.635Z,102787.72
2023-05-18T00:18:12.971Z,102786.81
2023-05-18T00:23:10.592Z,102782.34
2023-05-18T00:28:06.962Z,102784.09
2023-05-18T00:33:03.484Z,102789.44
2023-05-18T00:38:00.041Z,102791.19
2023-05-18T00:42:56.554Z,102792.19
2023-05-18T00:47:52.958Z,102792.34
2023-05-18T00:52:49.419Z,102797.72
2023-05-18T00:57:48.114Z,102806.91
2023-05-18T01:02:45.510Z,102798.00
2023-05-18T01:07:44.774Z,102803.25
2023-05-18T01:12:43.897Z,102807.78
2023-05-18T01:17:51.272Z,102806.84
2023-05-18T01:23:01.475Z,102806.03
2023-05-18T01:27:59.867Z,102807.88
2023-05-18T01:32:56.451Z,102808.91
2023-05-18T01:37:52.831Z,102813.28
2023-05-18T01:42:50.053Z,102805.31
2023-05-18T01:47:46.704Z,102815.13
2023-05-18T01:52:44.988Z,102805.81
2023-05-18T01:57:41.977Z,102817.34
2023-05-18T02:02:38.437Z,102811.38
2023-05-18T02:07:34.891Z,102820.38
2023-05-18T02:12:31.515Z,102818.53
2023-05-18T02:17:28.728Z,102815.16
2023-05-18T02:22:25.094Z,102811.59
2023-05-18T02:27:21.552Z,102814.34
2023-05-18T02:32:17.944Z,102817.84
2023-05-18T02:37:16.902Z,102817.81
2023-05-18T02:42:13.670Z,102823.22
2023-05-18T02:47:10.045Z,102819.88
2023-05-18T02:52:06.578Z,102832.31
2023-05-18T02:57:02.977Z,102834.16
2023-05-18T03:01:59.408Z,102831.69
2023-05-18T03:06:57.225Z,102827.22
2023-05-18T03:11:53.850Z,102827.22
2023-05-18T03:16:54.287Z,102826.56
2023-05-18T03:21:50.807Z,102823.94
2023-05-18T03:26:47.218Z,102837.19
2023-05-18T03:31:46.224Z,102834.44
2023-05-18T03:36:42.634Z,102839.69
2023-05-18T03:41:38.964Z,102841.50
2023-05-18T03:46:35.489Z,102844.16
2023-05-18T03:51:31.893Z,102851.44
2023-05-18T03:56:31.064Z,102845.09
2023-05-18T04:01:30.169Z,102840.56
2023-05-18T04:06:26.622Z,102843.16
2023-05-18T04:11:22.995Z,102846.81
2023-05-18T04:16:19.519Z,102864.53
2023-05-18T04:21:16.112Z,102861.88
2023-05-18T04:26:12.437Z,102866.16
2023-05-18T04:31:08.831Z,102874.97
2023-05-18T04:36:05.521Z,102878.34
2023-05-18T04:41:05.369Z,102888.84
2023-05-18T04:46:01.934Z,102887.13
2023-05-18T04:50:58.288Z,102884.44
2023-05-18T04:55:54.678Z,102894.88
2023-05-18T05:00:51.260Z,102887.69
2023-05-18T05:05:47.570Z,102887.56
2023-05-18T05:10:43.892Z,102899.75
2023-05-18T05:15:42.789Z,102904.06
2023-05-18T05:20:41.723Z,102900.56
2023-05-18T05:25:38.076Z,102906.63
2023-05-18T05:30:34.442Z,102910.00
2023-05-18T05:35:33.406Z,102910.66
2023-05-18T05:40:32.664Z,102925.59
2023-05-18T05:45:29.228Z,102922.72
2023-05-18T05:50:26.198Z,102928.75
2023-05-18T05:55:22.789Z,102925.91
2023-05-18T06:00:19.469Z,102931.94
2023-05-18T06:05:15.826Z,102934.56
2023-05-18T06:10:12.205Z,102933.66
2023-05-18T06:15:08.944Z,102939.69
2023-05-18T06:20:08.777Z,102941.34
2023-05-18T06:25:05.297Z,102946.50
2023-05-18T06:30:01.696Z,102944.59
2023-05-18T06:34:58.093Z,102956.75
2023-05-18T06:39:54.406Z,102966.28
2023-05-18T06:44:51.078Z,102966.22
2023-05-18T06:49:47.458Z,102959.72
2023-05-18T06:54:43.783Z,102958.47
2023-05-18T06:59:40.663Z,102965.31
2023-05-18T07:04:41.329Z,102959.00
2023-05-18T07:09:37.672Z,102956.88
2023-05-18T07:14:34.030Z,102959.22
2023-05-18T07:19:30.455Z,102969.72
2023-05-18T07:24:26.818Z,102964.19
2023-05-18T07:29:23.169Z,102965.53
2023-05-18T07:34:20.682Z,102969.59
2023-05-18T07:39:19.399Z,102970.84
2023-05-18T07:44:16.345Z,102966.97
2023-05-18T07:49:12.702Z,102973.78
2023-05-18T07:54:09.138Z,102974.47
2023-05-18T07:59:05.485Z,102972.28
2023-05-18T08:04:02.024Z,102972.81
2023-05-18T08:08:58.462Z,102980.88
2023-05-18T08:13:54.847Z,102964.41
2023-05-18T08:18:51.278Z,102971.28
2023-05-18T08:23:47.822Z,102964.13
2023-05-18T08:28:45.169Z,102971.91
2023-05-18T08:33:41.885Z,102966.13
2023-05-18T08:38:46.230Z,102962.69
2023-05-18T08:43:46.871Z,102973.63
2023-05-18T08:48:44.239Z,102958.56
2023-05-18T08:53:40.720Z,102959.28
2023-05-18T08:58:41.011Z,102961.66
2023-05-18T09:03:38.075Z,102956.19
2023-05-18T09:08:34.479Z,102957.38
2023-05-18T09:13:31.248Z,102952.03
2023-05-18T09:18:28.479Z,102947.16
2023-05-18T09:23:25.030Z,102950.63
2023-05-18T09:28:36.498Z,102937.44
2023-05-18T09:33:34.351Z,102936.19
2023-05-18T09:38:30.806Z,102938.13
2023-05-18T09:43:27.149Z,102934.44
2023-05-18T09:48:25.199Z,102931.88
2023-05-18T09:53:23.060Z,102932.44
2023-05-18T09:58:19.434Z,102931.78
2023-05-18T10:03:19.710Z,102927.16
2023-05-18T10:08:19.232Z,102927.81
2023-05-18T10:13:18.903Z,102927.00
2023-05-18T10:18:16.629Z,102916.72
2023-05-18T10:23:15.911Z,102918.38
2023-05-18T10:28:12.291Z,102915.47
2023-05-18T10:33:20.631Z,102914.56
2023-05-18T10:38:25.532Z,102909.97
2023-05-18T10:43:24.197Z,102897.53
2023-05-18T10:48:21.237Z,102903.25
2023-05-18T10:53:20.688Z,102908.03
2023-05-18T10:58:20.975Z,102898.88
2023-05-18T11:03:18.107Z,102896.91
2023-05-18T11:08:15.053Z,102892.97
2023-05-18T11:13:11.460Z,102897.75
2023-05-18T11:18:14.114Z,102896.66
2023-05-18T11:23:10.514Z,102900.56
2023-05-18T11:28:08.270Z,102902.38
2023-05-18T11:33:17.546Z,102889.97
2023-05-18T11:38:14.294Z,102878.13
2023-05-18T11:43:14.053Z,102871.59
2023-05-18T11:48:12.146Z,102871.31
2023-05-18T11:53:08.542Z,102871.81
2023-05-18T11:58:04.854Z,102874.28
2023-05-18T12:03:03.674Z,102872.31
2023-05-18T12:08:00.505Z,102857.22
2023-05-18T12:12:56.827Z,102859.69
2023-05-18T12:17:53.442Z,102854.22
2023-05-18T12:22:51.920Z,102861.03
2023-05-18T12:27:48.648Z,102861.66
2023-05-18T12:32:46.434Z,102847.28
2023-05-18T12:37:45.007Z,102848.56
2023-05-18T12:42:54.939Z,102833.94
2023-05-18T12:47:54.514Z,102840.66
2023-05-18T12:52:51.366Z,102839.63
2023-05-18T12:58:07.341Z,102830.97
2023-05-18T13:03:07.480Z,102822.72
2023-05-18T13:08:04.029Z,102825.25
2023-05-18T13:13:03.970Z,102814.53
2023-05-18T13:18:01.249Z,102814.28
2023-05-18T13:22:59.605Z,102808.53
2023-05-18T13:27:56.211Z,102802.53
2023-05-18T13:32:52.738Z,102803.16
2023-05-18T13:37:49.833Z,102810.00
2023-05-18T13:42:46.235Z,102803.00
2023-05-18T13:47:45.292Z,102802.09
2023-05-18T13:52:41.715Z,102796.22
2023-05-18T13:57:38.048Z,102797.72
2023-05-18T14:02:34.532Z,102787.69
2023-05-18T14:07:31.037Z,102785.03
2023-05-18T14:12:27.437Z,102780.53
2023-05-18T14:17:23.890Z,102776.13
2023-05-18T14:22:21.871Z,102778.47
2023-05-18T14:27:20.294Z,102777.25
2023-05-18T14:32:17.147Z,102760.94
2023-05-18T14:37:13.496Z,102764.47
2023-05-18T14:42:09.920Z,102774.09
2023-05-18T14:47:06.732Z,102771.41
2023-05-18T14:52:03.209Z,102768.47
2023-05-18T14:57:02.033Z,102768.47
2023-05-18T15:01:58.511Z,102767.34
2023-05-18T15:06:55.054Z,102762.78
2023-05-18T15:11:52.139Z,102759.06
2023-05-18T15:16:48.518Z,102769.69
2023-05-18T15:21:45.064Z,102765.09
2023-05-18T15:26:41.924Z,102756.22
2023-05-18T15:31:39.708Z,102761.41
2023-05-18T15:36:37.585Z,102761.41
2023-05-18T15:41:34.190Z,102751.09
2023-05-18T15:46:35.717Z,102741.06
2023-05-18T15:51:32.190Z,102739.09
2023-05-18T15:56:28.533Z,102741.78
2023-05-18T16:01:24.933Z,102742.66
2023-05-18T16:06:21.358Z,102741.69
2023-05-18T16:11:17.722Z,102744.97
2023-05-18T16:16:14.288Z,102743.06
2023-05-18T16:21:10.758Z,102741.25
2023-05-18T16:26:07.195Z,102741.03
2023-05-18T16:31:07.584Z,102749.84
2023-05-18T16:36:05.078Z,102732.03
2023-05-18T16:41:01.913Z,102730.34
2023-05-18T16:45:58.345Z,102735.66
2023-05-18T16:50:54.743Z,102740.94
2023-05-18T16:55:51.162Z,102741.94
2023-05-18T17:00:47.538Z,102732.13
2023-05-18T17:05:43.912Z,102734.81
2023-05-18T17:10:40.908Z,102736.53
2023-05-18T17:15:37.322Z,102732.34
2023-05-18T17:20:33.895Z,102745.81
2023-05-18T17:25:30.648Z,102742.53
2023-05-18T17:30:27.050Z,102750.59
2023-05-18T17:35:23.386Z,102744.38
2023-05-18T17:40:20.003Z,102738.22
2023-05-18T17:45:17.953Z,102740.13
2023-05-18T17:50:14.524Z,102736.59
2023-05-18T17:55:10.938Z,102745.66
2023-05-18T18:00:07.662Z,102747.72
2023-05-18T18:05:07.350Z,102739.97
2023-05-18T18:10:04.669Z,102750.94
2023-05-18T18:15:01.310Z,102753.84
2023-05-18T18:19:58.398Z,102749.00
2023-05-18T18:24:54.778Z,102760.91
2023-05-18T18:29:51.372Z,102758.41
2023-05-18T18:34:47.816Z,102765.94
2023-05-18T18:39:44.234Z,102755.59
2023-05-18T18:44:40.574Z,102761.31
2023-05-18T18:49:36.912Z,102769.72
2023-05-18T18:54:33.290Z,102771.97
2023-05-18T18:59:29.600Z,102773.44
2023-05-18T19:04:25.956Z,102773.78
2023-05-18T19:09:22.704Z,102775.94
2023-05-18T19:14:19.065Z,102784.31
2023-05-18T19:19:18.401Z,102786.34
2023-05-18T19:24:14.737Z,102796.53
2023-05-18T19:29:11.113Z,102805.81
2023-05-18T19:34:07.443Z,102801.72
2023-05-18T19:39:04.809Z,102807.28
2023-05-18T19:44:01.137Z,102817.44
2023-05-18T19:48:57.532Z,102818.56
2023-05-18T19:53:53.854Z,102821.56
2023-05-18T19:58:50.284Z,102824.66
2023-05-18T20:03:49.770Z,102818.88
2023-05-18T20:08:46.144Z,102821.06
2023-05-18T20:13:46.390Z,102824.25
2023-05-18T20:18:43.285Z,102823.72
2023-05-18T20:23:39.742Z,102829.25
2023-05-18T20:28:36.098Z,102827.75
2023-05-18T20:33:34.205Z,102838.06
2023-05-18T20:38:30.778Z,102842.75
2023-05-18T20:43:31.788Z,102851.06
2023-05-18T20:48:28.853Z,102854.84
2023-05-18T20:53:26.048Z,102855.13
2023-05-18T20:58:22.440Z,102855.38
2023-05-18T21:03:20.073Z,102843.38
2023-05-18T21:08:16.607Z,102850.84
2023-05-18T21:13:13.008Z,102847.56
2023-05-18T21:18:09.384Z,102844.22
2023-05-18T21:23:05.932Z,102853.28
2023-05-18T21:28:02.293Z,102853.78
2023-05-18T21:32:58.821Z,102858.44
2023-05-18T21:37:55.391Z,102848.97
2023-05-18T21:42:51.749Z,102857.34
2023-05-18T21:47:50.128Z,102852.34
2023-05-18T21:52:46.834Z,102849.16
2023-05-18T21:57:43.142Z,102853.94
2023-05-18T22:02:39.778Z,102858.56
2023-05-18T22:07:36.357Z,102858.78
2023-05-18T22:12:33.271Z,102859.03
2023-05-18T22:17:29.704Z,102858.44
2023-05-18T22:22:30.146Z,102860.41
2023-05-18T22:27:27.248Z,102863.41
2023-05-18T22:32:23.812Z,102861.06
2023-05-18T22:37:20.287Z,102856.88
2023-05-18T22:42:19.165Z,102862.47
2023-05-18T22:47:19.593Z,102861.81
2023-05-18T22:52:16.454Z,102855.06
2023-05-18T22:57:12.863Z,102857.94
2023-05-18T23:02:09.223Z,102860.88
2023-05-18T23:07:05.615Z,102853.13
2023-05-18T23:12:01.920Z,102848.06
2023-05-18T23:16:58.369Z,102849.19
2023-05-18T23:21:54.843Z,102856.44
2023-05-18T23:26:51.174Z,102857.50
2023-05-18T23:31:47.532Z,102833.31
2023-05-18T23:36:43.987Z,102852.59
2023-05-18T23:41:40.418Z,102853.72
2023-05-18T23:46:36.912Z,102850.28
2023-05-18T23:51:36.078Z,102848.59
2023-05-18T23:56:33.185Z,102839.84
